Time;durP1;ratioP1;P1;durP2;ratioP2;P2;SDS_P1;SDS_P2;PMS_P1;PMS_P2;Temp;Humidity;BMP_temperature;BMP_pressure;BME280_temperature;BME280_humidity;BME280_pressure;Samples;Min_cycle;Max_cycle;Signal;HPM_P1;HPM_P2
2021/12/09 00:01:13;;;;;;;13.17;11.97;;;;;;;2.70;83.21;99604.63;4970658;28;20050;-85
2021/12/09 00:03:41;;;;;;;13.20;11.90;;;;;;;2.73;83.25;99609.63;4987337;28;20058;-85
2021/12/09 00:06:11;;;;;;;13.10;11.70;;;;;;;2.68;83.46;99606.50;4987506;28;20149;-83
2021/12/09 00:08:38;;;;;;;14.60;13.10;;;;;;;2.67;83.54;99591.72;4988119;28;20049;-84
2021/12/09 00:11:07;;;;;;;12.77;11.53;;;;;;;2.74;84.04;99609.53;4971556;28;20133;-83
2021/12/09 00:13:34;;;;;;;12.50;11.20;;;;;;;2.85;83.03;99627.09;4974863;28;20046;-82
2021/12/09 00:16:01;;;;;;;13.47;12.17;;;;;;;2.82;83.53;99623.88;4990073;28;20078;-83
2021/12/09 00:18:28;;;;;;;14.03;12.57;;;;;;;2.52;83.14;99580.56;4986762;28;20158;-84
2021/12/09 00:20:55;;;;;;;13.93;12.53;;;;;;;2.24;83.80;99530.16;4969452;28;20081;-83
2021/12/09 00:23:21;;;;;;;14.67;13.00;;;;;;;2.80;83.82;99621.34;4970159;28;20050;-84
2021/12/09 00:25:48;;;;;;;15.17;12.93;;;;;;;2.39;83.75;99562.28;4969916;28;20451;-83
2021/12/09 00:28:15;;;;;;;14.87;13.33;;;;;;;2.57;83.64;99591.53;4970324;28;20062;-83
2021/12/09 00:30:42;;;;;;;15.03;13.13;;;;;;;2.76;83.82;99641.69;4970264;28;20097;-83
2021/12/09 00:33:10;;;;;;;14.80;13.30;;;;;;;2.41;83.57;99604.91;4969861;28;20074;-84
2021/12/09 00:35:53;;;;;;;15.40;13.80;;;;;;;2.69;83.89;99661.41;4986996;28;20108;-84
2021/12/09 00:38:41;;;;;;;16.23;14.53;;;;;;;2.42;83.73;99587.41;4969577;28;20561;-84
2021/12/09 00:41:14;;;;;;;16.93;13.73;;;;;;;2.59;83.35;99628.94;4970093;28;20440;-85
2021/12/09 00:43:42;;;;;;;15.30;13.70;;;;;;;2.60;83.82;99630.66;4971394;28;20054;-83
2021/12/09 00:46:09;;;;;;;15.87;13.87;;;;;;;2.81;83.85;99653.63;4973974;28;20133;-84
2021/12/09 00:48:36;;;;;;;14.30;12.57;;;;;;;2.65;84.26;99627.69;4973760;28;20577;-84
2021/12/09 00:51:04;;;;;;;17.27;13.70;;;;;;;2.82;83.24;99650.09;4973775;28;20511;-82
2021/12/09 00:53:32;;;;;;;15.47;13.47;;;;;;;1.91;83.65;99486.25;4989734;28;20050;-84
2021/12/09 00:55:59;;;;;;;15.37;13.77;;;;;;;2.66;83.58;99613.63;4991571;28;20109;-84
2021/12/09 00:58:26;;;;;;;17.73;14.73;;;;;;;1.62;83.26;99452.50;4991085;28;20050;-83
2021/12/09 01:00:54;;;;;;;15.30;12.93;;;;;;;1.33;83.24;99412.69;4973885;28;20043;-84
2021/12/09 01:03:21;;;;;;;19.67;13.50;;;;;;;1.66;83.59;99472.28;4990743;28;20500;-84
2021/12/09 01:05:49;;;;;;;15.00;13.40;;;;;;;1.99;83.79;99552.00;4973559;28;20444;-84
2021/12/09 01:08:36;;;;;;;13.70;12.30;;;;;;;1.84;83.64;99521.66;4991281;28;20053;-83
2021/12/09 01:11:05;;;;;;;14.30;12.80;;;;;;;2.86;83.55;99685.59;4992121;28;20061;-83
2021/12/09 01:13:32;;;;;;;15.23;13.70;;;;;;;2.07;82.94;99551.47;4992812;28;20050;-83
2021/12/09 01:15:59;;;;;;;14.90;13.30;;;;;;;2.13;83.74;99553.63;4991703;28;20432;-84
2021/12/09 01:18:29;;;;;;;14.17;12.47;;;;;;;1.85;83.64;99512.88;4992589;28;20495;-84
2021/12/09 01:20:57;;;;;;;12.67;11.30;;;;;;;2.27;83.24;99556.13;4976501;28;20476;-84
2021/12/09 01:23:24;;;;;;;14.87;13.37;;;;;;;2.41;83.19;99583.13;4989810;28;20151;-83
2021/12/09 01:25:58;;;;;;;15.67;13.03;;;;;;;2.81;83.17;99667.56;4972383;28;20254;-84
2021/12/09 01:28:28;;;;;;;13.53;12.03;;;;;;;1.58;82.83;99478.97;4972905;28;20492;-84
2021/12/09 01:31:01;;;;;;;16.10;14.40;;;;;;;1.36;83.13;99435.16;4990183;28;20096;-84
2021/12/09 01:33:33;;;;;;;13.87;12.53;;;;;;;2.90;83.20;99689.69;4990035;28;20050;-85
2021/12/09 01:36:00;;;;;;;13.68;12.32;;;;;;;1.70;82.98;99496.47;4989940;28;20073;-84
2021/12/09 01:38:30;;;;;;;14.63;13.10;;;;;;;1.32;82.98;99429.34;4990347;28;20217;-85
2021/12/09 01:40:58;;;;;;;14.17;12.80;;;;;;;2.25;83.52;99583.38;4972462;28;20089;-83
2021/12/09 01:43:25;;;;;;;15.43;13.63;;;;;;;2.33;83.40;99587.13;4972247;28;20058;-84
2021/12/09 01:46:21;;;;;;;18.63;14.30;;;;;;;2.89;83.65;99667.88;4990274;28;20137;-85
2021/12/09 01:48:51;;;;;;;13.83;12.53;;;;;;;1.17;83.66;99401.66;4960097;28;20078;-85
2021/12/09 01:51:18;;;;;;;15.97;14.20;;;;;;;2.44;83.30;99598.63;4972539;28;20319;-85
2021/12/09 01:53:46;;;;;;;16.10;14.23;;;;;;;2.28;83.67;99568.28;4972449;28;20140;-84
2021/12/09 01:56:21;;;;;;;16.23;14.43;;;;;;;2.97;83.09;99676.00;4971887;28;20492;-86
2021/12/09 01:58:56;;;;;;;14.67;13.17;;;;;;;2.92;82.93;99643.22;4972582;28;20421;-85
2021/12/09 02:01:24;;;;;;;15.57;13.93;;;;;;;2.95;82.39;99635.13;4972411;28;20054;-83
2021/12/09 02:03:51;;;;;;;15.67;13.97;;;;;;;2.75;82.57;99619.06;4975402;28;20086;-84
2021/12/09 02:06:19;;;;;;;17.57;14.43;;;;;;;2.87;82.69;99650.59;4972666;28;20359;-85
2021/12/09 02:08:46;;;;;;;16.53;14.83;;;;;;;2.90;82.59;99645.94;4972592;28;20381;-84
2021/12/09 02:11:13;;;;;;;18.13;15.93;;;;;;;3.11;82.66;99672.41;4990078;28;20114;-85
2021/12/09 02:13:39;;;;;;;16.17;14.47;;;;;;;2.28;82.00;99546.47;4972237;28;20480;-84
2021/12/09 02:16:08;;;;;;;16.53;14.83;;;;;;;2.92;82.51;99658.94;4973100;28;20057;-84
2021/12/09 02:18:35;;;;;;;16.23;14.50;;;;;;;2.97;81.97;99659.44;4972669;28;20058;-83
2021/12/09 02:21:15;;;;;;;17.33;15.63;;;;;;;3.09;81.68;99679.53;4972451;28;20392;-84
2021/12/09 02:23:48;;;;;;;17.90;15.13;;;;;;;3.15;81.70;99679.06;4972675;28;20491;-84
2021/12/09 02:26:17;;;;;;;20.17;14.43;;;;;;;3.10;81.62;99670.72;4972565;28;20148;-84
2021/12/09 02:28:45;;;;;;;16.10;14.53;;;;;;;3.00;81.71;99651.34;4972124;28;20081;-84
2021/12/09 02:31:12;;;;;;;16.80;15.10;;;;;;;3.05;81.74;99662.34;4972424;28;20088;-83
2021/12/09 02:33:38;;;;;;;15.90;14.20;;;;;;;3.13;81.33;99673.13;4972311;28;20137;-84
2021/12/09 02:36:06;;;;;;;15.90;13.93;;;;;;;3.06;81.17;99678.91;4989418;28;20054;-84
2021/12/09 02:38:41;;;;;;;15.50;14.00;;;;;;;3.05;81.05;99672.84;4971876;28;20508;-83
2021/12/09 02:41:09;;;;;;;15.70;14.10;;;;;;;3.04;80.97;99686.91;4972027;28;20416;-84
2021/12/09 02:43:36;;;;;;;15.40;13.90;;;;;;;2.90;80.26;99658.22;4972732;28;20062;-84
2021/12/09 02:46:03;;;;;;;15.67;14.07;;;;;;;3.04;80.57;99679.03;4971523;28;20086;-84
2021/12/09 02:48:30;;;;;;;16.20;14.53;;;;;;;3.02;80.52;99657.34;4972215;28;20439;-84
2021/12/09 02:50:56;;;;;;;16.17;14.53;;;;;;;2.85;80.33;99623.63;4989157;28;20049;-83
2021/12/09 02:53:23;;;;;;;15.10;13.60;;;;;;;3.19;80.21;99675.28;4989772;28;20141;-83
2021/12/09 02:55:50;;;;;;;15.90;14.40;;;;;;;2.88;80.17;99629.47;4972561;28;20149;-85
2021/12/09 02:58:16;;;;;;;16.10;14.50;;;;;;;3.13;79.49;99665.25;4972252;28;20348;-85
2021/12/09 03:00:56;;;;;;;15.40;13.80;;;;;;;2.90;79.52;99632.00;4971743;28;20132;-85
2021/12/09 03:03:24;;;;;;;15.20;13.37;;;;;;;2.98;79.48;99640.13;4972121;28;20054;-84
2021/12/09 03:05:53;;;;;;;16.73;15.03;;;;;;;2.86;79.56;99615.66;4987392;28;20054;-83
2021/12/09 03:08:24;;;;;;;15.63;14.07;;;;;;;3.25;79.31;99671.38;4971947;28;20121;-83
2021/12/09 03:10:51;;;;;;;16.08;14.52;;;;;;;3.24;79.13;99663.63;4988112;28;20137;-84
2021/12/09 03:13:18;;;;;;;16.13;14.50;;;;;;;3.11;79.41;99640.94;4988712;28;20061;-84
2021/12/09 03:15:45;;;;;;;16.27;14.77;;;;;;;2.70;79.50;99584.47;4973323;28;20112;-84
2021/12/09 03:18:11;;;;;;;15.27;13.67;;;;;;;3.21;79.39;99655.03;4973554;28;20065;-83
2021/12/09 03:20:38;;;;;;;15.67;14.07;;;;;;;3.11;79.47;99646.19;4973565;28;20116;-85
2021/12/09 03:23:04;;;;;;;15.33;13.80;;;;;;;3.03;79.32;99617.03;4990964;28;20054;-83
2021/12/09 03:25:32;;;;;;;15.67;14.07;;;;;;;3.33;78.81;99655.09;4990751;28;20481;-82
2021/12/09 03:27:59;;;;;;;16.13;14.53;;;;;;;3.21;79.22;99651.59;4972379;28;20077;-82
2021/12/09 03:30:26;;;;;;;15.80;14.20;;;;;;;3.33;78.88;99670.84;4972800;28;20050;-84
2021/12/09 03:32:54;;;;;;;16.37;14.67;;;;;;;3.13;78.46;99660.03;4970821;28;20141;-83
2021/12/09 03:35:21;;;;;;;15.97;14.40;;;;;;;3.19;78.72;99677.91;4970981;28;20400;-84
2021/12/09 03:37:47;;;;;;;15.77;14.27;;;;;;;2.99;79.02;99649.69;4987995;28;20054;-82
2021/12/09 03:40:15;;;;;;;15.87;14.30;;;;;;;3.39;79.00;99697.44;4986792;28;20053;-84
2021/12/09 03:42:43;;;;;;;15.63;14.03;;;;;;;3.17;79.14;99658.81;4970973;28;20108;-84
2021/12/09 03:45:10;;;;;;;15.10;13.60;;;;;;;3.43;78.41;99708.56;4988187;28;20050;-83
2021/12/09 03:47:38;;;;;;;15.97;14.43;;;;;;;3.25;78.63;99675.78;4970969;28;20536;-85
2021/12/09 03:50:09;;;;;;;16.73;15.13;;;;;;;2.52;78.34;99555.19;4993051;28;20050;-84
2021/12/09 03:52:36;;;;;;;16.33;14.63;;;;;;;2.95;78.00;99624.63;4980874;28;20050;-85
2021/12/09 03:55:05;;;;;;;15.73;14.17;;;;;;;3.36;77.92;99696.84;4999162;28;20117;-84
2021/12/09 03:57:33;;;;;;;16.67;14.97;;;;;;;3.35;78.23;99695.16;4985831;28;20484;-83
2021/12/09 03:59:59;;;;;;;15.27;13.67;;;;;;;3.32;77.85;99690.13;4972939;28;20187;-85
2021/12/09 04:02:26;;;;;;;17.70;15.17;;;;;;;3.07;77.43;99649.97;4970385;28;20117;-83
2021/12/09 04:04:53;;;;;;;16.57;14.87;;;;;;;3.26;78.44;99686.19;4986237;28;20409;-84
2021/12/09 04:07:20;;;;;;;16.67;14.90;;;;;;;3.38;78.48;99700.19;4970075;28;20162;-84
2021/12/09 04:09:47;;;;;;;15.60;14.10;;;;;;;3.35;78.92;99695.16;4970050;28;20050;-82
2021/12/09 04:12:14;;;;;;;16.40;14.73;;;;;;;3.18;77.79;99672.78;4987540;28;20129;-83
2021/12/09 04:14:41;;;;;;;17.10;15.43;;;;;;;2.86;78.43;99625.28;4987569;28;20086;-85
2021/12/09 04:17:08;;;;;;;17.47;15.70;;;;;;;1.86;77.95;99470.88;4970624;28;20109;-83
2021/12/09 04:19:36;;;;;;;16.00;14.37;;;;;;;1.79;78.12;99482.72;4973652;28;20058;-82
2021/12/09 04:22:03;;;;;;;17.20;15.47;;;;;;;2.39;78.05;99558.81;4974257;28;20101;-85
2021/12/09 04:24:29;;;;;;;18.43;16.53;;;;;;;3.29;77.93;99716.59;4991787;28;20125;-83
2021/12/09 04:26:56;;;;;;;17.30;15.50;;;;;;;2.44;77.93;99581.09;4974590;28;20049;-83
2021/12/09 04:29:22;;;;;;;19.53;16.87;;;;;;;2.28;78.16;99552.56;4992203;28;20141;-86
2021/12/09 04:31:51;;;;;;;18.70;16.37;;;;;;;3.30;78.16;99723.50;4991375;28;20078;-85
2021/12/09 04:34:19;;;;;;;18.70;16.70;;;;;;;3.20;78.46;99708.47;4974033;28;20050;-83
2021/12/09 04:36:46;;;;;;;20.23;17.00;;;;;;;3.10;78.46;99690.84;4974387;28;20050;-83
2021/12/09 04:39:13;;;;;;;18.67;16.47;;;;;;;3.27;79.10;99713.25;4974473;28;20485;-85
2021/12/09 04:41:40;;;;;;;19.83;17.57;;;;;;;3.21;78.54;99715.38;4973950;28;20504;-83
2021/12/09 04:44:08;;;;;;;21.30;16.23;;;;;;;2.86;78.20;99656.75;4990543;28;20138;-84
2021/12/09 04:46:36;;;;;;;18.43;16.23;;;;;;;3.13;78.44;99707.22;4991669;28;20502;-84
2021/12/09 04:49:04;;;;;;;20.70;17.80;;;;;;;2.94;78.66;99675.41;4974259;28;20088;-82
2021/12/09 04:51:32;;;;;;;19.33;17.27;;;;;;;3.26;78.69;99722.91;4975084;28;20080;-85
2021/12/09 04:53:58;;;;;;;18.60;16.13;;;;;;;3.24;79.02;99721.34;4992474;28;20595;-85
2021/12/09 04:56:25;;;;;;;20.10;17.70;;;;;;;3.09;78.62;99702.31;4974839;28;20120;-84
2021/12/09 04:58:52;;;;;;;19.13;17.10;;;;;;;3.00;78.51;99701.19;4992630;28;20150;-84
2021/12/09 05:01:19;;;;;;;19.23;17.17;;;;;;;2.54;78.77;99621.41;4974946;28;20142;-83
2021/12/09 05:03:48;;;;;;;18.47;16.47;;;;;;;3.17;78.87;99724.41;4991729;28;20056;-83
2021/12/09 05:06:16;;;;;;;20.87;17.57;;;;;;;2.95;78.81;99684.94;4991545;28;20100;-84
2021/12/09 05:08:47;;;;;;;19.70;16.53;;;;;;;3.00;79.09;99696.75;4990452;28;20133;-84
2021/12/09 05:14:21;;;;;;;20.30;17.27;;;;;;;3.19;78.66;99716.44;4950309;29;20089;-83
2021/12/09 05:16:53;;;;;;;18.60;15.90;;;;;;;3.05;78.69;99691.19;4970279;28;20485;-84
2021/12/09 05:19:20;;;;;;;20.47;17.60;;;;;;;3.10;78.79;99707.44;4992047;28;20403;-84
2021/12/09 05:21:47;;;;;;;19.93;16.97;;;;;;;2.82;79.22;99660.56;4992201;28;20050;-85
2021/12/09 05:24:15;;;;;;;20.60;17.00;;;;;;;3.12;79.50;99705.53;4994989;28;20050;-86
2021/12/09 05:26:47;;;;;;;23.27;18.63;;;;;;;2.67;79.44;99615.31;4996360;28;20144;-85
2021/12/09 05:29:15;;;;;;;19.50;17.38;;;;;;;1.85;78.97;99468.38;4978763;28;20055;-85
2021/12/09 05:34:30;;;;;;;19.80;16.80;;;;;;;2.24;78.73;99524.91;4995568;28;20503;-84
2021/12/09 05:36:56;;;;;;;19.47;17.37;;;;;;;3.32;78.62;99700.63;4973675;28;20105;-84
2021/12/09 05:39:23;;;;;;;20.13;18.03;;;;;;;2.07;77.93;99496.47;4973249;28;20112;-84
2021/12/09 05:41:51;;;;;;;18.83;16.73;;;;;;;3.35;78.22;99705.63;4973819;28;20693;-83
2021/12/09 05:44:17;;;;;;;21.83;18.57;;;;;;;3.27;78.29;99698.34;4973516;28;20057;-84
2021/12/09 05:46:46;;;;;;;22.30;18.03;;;;;;;1.52;77.62;99417.47;4990670;28;20060;-83
2021/12/09 05:49:15;;;;;;;19.47;17.47;;;;;;;3.31;78.39;99725.19;4989057;28;20078;-83
2021/12/09 05:51:43;;;;;;;19.20;16.60;;;;;;;1.50;78.66;99437.66;4989214;28;20496;-83
2021/12/09 05:54:10;;;;;;;19.73;17.00;;;;;;;1.69;78.52;99455.53;4990157;28;20262;-84
2021/12/09 05:56:37;;;;;;;20.13;17.37;;;;;;;3.16;77.74;99700.91;4972812;28;20157;-84
2021/12/09 05:59:07;;;;;;;18.47;16.53;;;;;;;3.18;77.85;99705.09;4971535;28;20141;-86
2021/12/09 06:01:35;;;;;;;20.53;18.37;;;;;;;3.25;78.33;99704.66;4971546;28;20050;-83
2021/12/09 06:04:03;;;;;;;19.33;17.33;;;;;;;3.47;77.44;99731.00;4984340;28;20117;-84
2021/12/09 06:06:30;;;;;;;19.77;17.67;;;;;;;3.38;76.83;99724.63;4951889;28;20050;-81
2021/12/09 06:09:00;;;;;;;17.03;15.23;;;;;;;3.30;76.62;99718.25;4984101;28;20072;-83
2021/12/09 06:11:27;;;;;;;18.40;16.43;;;;;;;1.60;76.37;99443.09;4967133;28;20145;-85
2021/12/09 06:13:54;;;;;;;18.47;16.53;;;;;;;2.88;76.52;99639.13;5004118;28;20046;-84
2021/12/09 06:16:21;;;;;;;18.17;16.27;;;;;;;2.66;76.14;99624.94;4988998;28;20086;-83
2021/12/09 06:18:48;;;;;;;16.07;14.47;;;;;;;2.56;76.12;99592.50;4986986;28;20057;-84
2021/12/09 06:21:15;;;;;;;16.70;14.93;;;;;;;2.69;76.12;99622.09;4987888;28;20054;-83
2021/12/09 06:23:42;;;;;;;17.53;15.73;;;;;;;2.97;76.92;99676.00;4986888;28;20132;-83
2021/12/09 06:26:09;;;;;;;17.33;15.33;;;;;;;3.03;76.75;99690.47;4988644;28;20134;-83
2021/12/09 06:28:36;;;;;;;17.30;15.60;;;;;;;3.25;76.17;99720.38;4971570;28;20050;-84
2021/12/09 06:31:02;;;;;;;18.37;16.47;;;;;;;3.25;76.66;99725.63;4987315;28;20137;-82
2021/12/09 06:33:29;;;;;;;16.13;14.53;;;;;;;3.25;76.82;99747.44;4971558;28;20392;-81
2021/12/09 06:35:56;;;;;;;18.07;15.73;;;;;;;3.30;77.19;99744.50;4988229;28;20101;-84
2021/12/09 06:38:23;;;;;;;18.90;16.90;;;;;;;3.13;77.07;99725.59;4970968;28;20446;-82
2021/12/09 06:40:50;;;;;;;17.90;16.00;;;;;;;3.26;77.11;99748.31;4969989;28;20483;-82
2021/12/09 06:43:17;;;;;;;17.93;16.13;;;;;;;3.10;77.13;99725.78;4970907;28;20543;-85
2021/12/09 06:45:44;;;;;;;18.93;16.93;;;;;;;3.17;77.04;99737.50;4971549;28;20112;-83
2021/12/09 06:48:11;;;;;;;19.37;17.33;;;;;;;3.04;77.01;99712.31;4971565;28;20050;-84
2021/12/09 06:50:38;;;;;;;18.47;16.47;;;;;;;3.00;77.44;99699.38;4988477;28;20150;-84
2021/12/09 06:53:05;;;;;;;18.53;16.63;;;;;;;3.03;77.44;99711.44;4971506;28;20101;-84
2021/12/09 06:55:32;;;;;;;18.13;16.33;;;;;;;2.85;76.90;99681.31;4971308;28;20385;-84
2021/12/09 06:57:58;;;;;;;18.20;16.20;;;;;;;3.22;76.88;99753.75;4971273;28;20582;-83
2021/12/09 07:00:31;;;;;;;18.80;16.90;;;;;;;2.95;77.18;99700.66;4971715;28;20112;-83
2021/12/09 07:02:58;;;;;;;16.73;15.13;;;;;;;3.30;76.43;99754.97;4971639;28;20112;-83
2021/12/09 07:05:27;;;;;;;17.70;16.00;;;;;;;3.14;77.51;99722.00;4971728;28;20417;-84
2021/12/09 07:07:53;;;;;;;18.77;16.77;;;;;;;2.95;77.68;99677.91;4971214;28;20054;-84
2021/12/09 07:10:22;;;;;;;18.43;16.47;;;;;;;3.47;77.27;99752.00;4971780;28;20108;-85
2021/12/09 07:12:49;;;;;;;17.47;15.67;;;;;;;3.51;77.44;99752.59;4971939;28;20468;-86
2021/12/09 07:15:16;;;;;;;17.13;15.43;;;;;;;3.06;77.07;99679.78;4970759;28;20054;-83
2021/12/09 07:17:43;;;;;;;17.90;16.00;;;;;;;3.12;77.47;99695.03;4969333;28;20051;-84
2021/12/09 07:20:12;;;;;;;18.30;16.43;;;;;;;3.31;77.57;99704.22;4968758;28;20174;-85
2021/12/09 07:22:39;;;;;;;16.87;15.17;;;;;;;3.41;77.93;99729.66;4986539;28;20480;-82
2021/12/09 07:25:06;;;;;;;18.13;16.33;;;;;;;3.52;77.56;99744.63;4969816;28;20551;-84
2021/12/09 07:27:33;;;;;;;17.27;15.60;;;;;;;3.69;77.25;99767.00;4986831;28;20136;-82
2021/12/09 07:30:02;;;;;;;20.87;17.90;;;;;;;3.24;77.52;99690.69;4970794;28;20101;-85
2021/12/09 07:32:32;;;;;;;19.17;17.27;;;;;;;3.73;76.98;99780.75;4975492;28;20539;-85
2021/12/09 07:35:00;;;;;;;17.87;16.03;;;;;;;2.89;77.20;99639.03;4971365;28;20440;-82
2021/12/09 07:37:30;;;;;;;17.93;16.20;;;;;;;3.80;77.19;99784.59;4989180;28;20048;-83
2021/12/09 07:39:57;;;;;;;18.47;16.47;;;;;;;3.12;77.11;99663.56;4971707;28;20057;-83
2021/12/09 07:42:23;;;;;;;19.53;17.13;;;;;;;3.09;76.64;99657.72;4971545;28;20142;-83
2021/12/09 07:44:51;;;;;;;17.23;15.63;;;;;;;3.60;76.12;99737.00;4970740;28;20058;-85
2021/12/09 07:47:18;;;;;;;16.87;15.10;;;;;;;3.64;74.80;99746.34;4988293;28;20132;-83
2021/12/09 07:49:45;;;;;;;16.90;15.20;;;;;;;2.49;74.95;99554.59;4987220;28;20050;-84
2021/12/09 07:52:12;;;;;;;15.00;13.60;;;;;;;2.91;74.50;99612.69;4988209;28;20116;-85
2021/12/09 07:54:38;;;;;;;14.90;13.40;;;;;;;4.07;75.87;99806.16;4973276;28;20156;-84
2021/12/09 07:57:05;;;;;;;14.47;13.07;;;;;;;3.74;74.69;99749.13;4987737;28;20448;-85
2021/12/09 07:59:32;;;;;;;15.50;13.90;;;;;;;2.96;74.34;99610.56;4989126;28;20455;-85
2021/12/09 08:01:59;;;;;;;15.27;13.77;;;;;;;4.22;75.05;99803.34;4970925;28;20054;-85
2021/12/09 08:04:26;;;;;;;12.00;10.43;;;;;;;3.60;73.80;99681.91;4971123;28;20050;-76
2021/12/09 08:06:53;;;;;;;14.17;12.87;;;;;;;4.03;72.94;99725.94;4988112;28;20042;-83
2021/12/09 08:09:20;;;;;;;13.97;12.60;;;;;;;4.24;72.17;99764.66;4970208;28;20089;-82
2021/12/09 08:11:50;;;;;;;14.17;12.77;;;;;;;3.54;73.01;99657.91;4986444;28;20767;-82
2021/12/09 08:14:19;;;;;;;14.00;12.60;;;;;;;4.27;72.92;99790.69;4969152;28;20054;-83
2021/12/09 08:16:56;;;;;;;14.47;12.97;;;;;;;3.81;73.22;99708.34;4969831;28;20062;-83
2021/12/09 08:19:23;;;;;;;14.73;13.33;;;;;;;4.11;72.39;99756.06;4969999;28;20367;-84
2021/12/09 08:21:50;;;;;;;15.03;13.43;;;;;;;3.33;72.47;99645.44;4970045;28;20475;-83
2021/12/09 08:24:17;;;;;;;15.87;14.27;;;;;;;3.69;73.16;99695.28;4970285;28;20042;-84
2021/12/09 08:26:45;;;;;;;15.53;14.07;;;;;;;4.32;73.60;99795.59;4970199;28;20168;-85
2021/12/09 08:29:12;;;;;;;15.70;14.10;;;;;;;3.05;73.45;99588.91;4970931;28;20476;-85
2021/12/09 08:31:38;;;;;;;16.83;14.83;;;;;;;4.49;73.60;99818.81;4988159;28;20056;-81
2021/12/09 08:34:16;;;;;;;16.93;15.23;;;;;;;3.78;73.69;99715.59;4972366;28;20054;-81
2021/12/09 08:36:52;;;;;;;15.60;14.10;;;;;;;4.41;73.71;99822.03;4986747;28;20049;-83
2021/12/09 08:39:20;;;;;;;17.80;15.20;;;;;;;4.00;74.00;99755.03;4970735;28;20042;-84
2021/12/09 08:41:47;;;;;;;17.13;15.43;;;;;;;4.45;74.19;99822.66;4970859;28;20050;-83
2021/12/09 08:44:14;;;;;;;17.13;15.43;;;;;;;4.53;73.68;99835.22;4970894;28;20100;-84
2021/12/09 08:46:41;;;;;;;18.30;16.40;;;;;;;4.35;74.11;99801.47;4970679;28;20054;-84
2021/12/09 08:49:08;;;;;;;17.70;15.97;;;;;;;4.64;73.77;99849.22;4971064;28;20057;-84
2021/12/09 08:51:37;;;;;;;16.00;14.40;;;;;;;4.56;73.35;99820.03;4970509;28;20074;-83
2021/12/09 08:54:05;;;;;;;16.03;14.37;;;;;;;3.77;73.21;99691.13;4970610;28;20050;-83
2021/12/09 08:56:34;;;;;;;15.83;14.23;;;;;;;4.62;72.63;99839.78;4970620;28;20070;-83
2021/12/09 08:59:03;;;;;;;17.13;15.43;;;;;;;4.65;73.00;99865.81;4970378;28;20393;-84
2021/12/09 09:01:31;;;;;;;16.63;14.97;;;;;;;4.62;73.85;99871.31;4986799;28;20079;-81
2021/12/09 09:04:01;;;;;;;15.07;13.57;;;;;;;3.97;73.35;99773.66;4971559;28;20097;-83
2021/12/09 09:06:32;;;;;;;18.77;16.40;;;;;;;4.72;74.56;99882.81;4974324;28;20492;-83
2021/12/09 09:09:00;;;;;;;16.70;15.00;;;;;;;4.78;73.87;99881.50;4974117;28;20366;-80
2021/12/09 09:11:29;;;;;;;17.40;15.47;;;;;;;4.83;72.99;99880.22;4990299;28;20066;-81
2021/12/09 09:13:58;;;;;;;15.97;14.37;;;;;;;4.41;72.82;99805.44;4974386;28;20428;-82
2021/12/09 09:16:27;;;;;;;15.43;14.03;;;;;;;4.98;72.15;99890.50;4974287;28;20452;-81
2021/12/09 09:18:57;;;;;;;15.70;14.13;;;;;;;4.66;71.91;99846.44;4974180;28;20058;-82
2021/12/09 09:21:28;;;;;;;16.00;14.10;;;;;;;4.92;71.60;99889.16;4991253;28;20046;-82
2021/12/09 09:23:56;;;;;;;15.03;13.53;;;;;;;4.08;71.44;99767.63;4974021;28;20054;-83
2021/12/09 09:26:23;;;;;;;15.83;14.23;;;;;;;4.82;71.51;99881.13;4974050;28;20050;-80
2021/12/09 09:28:50;;;;;;;16.40;14.00;;;;;;;4.79;72.16;99868.22;4974142;28;20149;-86
2021/12/09 09:31:17;;;;;;;21.27;15.47;;;;;;;4.98;71.96;99904.50;4973907;28;20082;-82
2021/12/09 09:33:43;;;;;;;16.50;14.67;;;;;;;4.92;72.15;99890.00;4974103;28;20058;-82
2021/12/09 09:36:10;;;;;;;25.17;15.25;;;;;;;4.33;71.98;99789.41;4973929;28;20047;-82
2021/12/09 09:38:37;;;;;;;18.70;16.00;;;;;;;4.19;71.95;99772.06;4973786;28;20308;-83
2021/12/09 09:41:12;;;;;;;16.87;14.80;;;;;;;4.93;72.45;99886.44;4974302;28;20054;-83
2021/12/09 09:46:20;;;;;;;14.47;13.17;;;;;;;4.87;71.91;99891.31;4991098;28;20109;-83
2021/12/09 09:48:49;;;;;;;18.37;14.63;;;;;;;4.76;72.19;99889.50;4973292;28;20492;-82
2021/12/09 09:51:19;;;;;;;15.80;14.17;;;;;;;4.69;72.36;99869.91;4972754;28;20053;-81
2021/12/09 09:53:47;;;;;;;19.00;15.13;;;;;;;4.25;72.70;99811.03;4973526;28;20084;-84
2021/12/09 09:56:19;;;;;;;17.20;15.50;;;;;;;4.35;72.92;99817.25;4976416;28;20081;-84
2021/12/09 09:58:50;;;;;;;16.80;15.10;;;;;;;4.70;73.21;99876.81;4973160;28;20566;-85
2021/12/09 10:01:17;;;;;;;15.47;13.90;;;;;;;4.71;73.18;99875.88;4972161;28;20432;-82
2021/12/09 10:03:47;;;;;;;15.00;13.37;;;;;;;4.92;72.83;99897.88;4972424;28;20568;-83
2021/12/09 10:06:17;;;;;;;15.30;13.75;;;;;;;4.86;72.99;99882.59;4988026;28;20421;-84
2021/12/09 10:08:44;;;;;;;15.73;13.40;;;;;;;4.77;73.00;99859.63;4988456;28;20077;-84
2021/12/09 10:11:12;;;;;;;14.80;13.30;;;;;;;4.97;73.35;99886.19;4988591;28;20050;-84
2021/12/09 10:13:42;;;;;;;14.53;13.03;;;;;;;4.74;72.73;99859.03;4972357;28;20459;-84
2021/12/09 10:16:21;;;;;;;14.90;13.47;;;;;;;4.89;72.71;99874.47;4972448;28;20436;-83
2021/12/09 10:18:51;;;;;;;14.50;13.00;;;;;;;5.04;72.47;99897.91;4972252;28;20133;-84
2021/12/09 10:21:28;;;;;;;16.00;13.67;;;;;;;5.04;72.34;99900.53;4972332;28;20137;-84
2021/12/09 10:24:06;;;;;;;14.70;12.97;;;;;;;4.71;73.74;99839.91;4988490;28;20496;-84
2021/12/09 10:26:44;;;;;;;14.37;12.80;;;;;;;5.01;73.07;99891.09;4984710;28;20051;-83
2021/12/09 10:29:18;;;;;;;13.40;12.07;;;;;;;5.02;72.83;99889.28;4986985;28;20054;-84
2021/12/09 10:31:48;;;;;;;16.55;11.60;;;;;;;4.90;72.90;99886.66;4971855;28;20050;-81
2021/12/09 10:34:31;;;;;;;13.67;12.30;;;;;;;5.00;73.73;99891.19;4971864;28;20062;-82
2021/12/09 10:37:06;;;;;;;14.27;12.88;;;;;;;4.99;73.69;99889.53;4971817;28;20100;-82
2021/12/09 10:39:32;;;;;;;14.10;12.67;;;;;;;5.03;73.22;99889.19;4971790;28;20050;-83
2021/12/09 10:42:04;;;;;;;14.57;12.27;;;;;;;4.97;74.09;99870.41;4971761;28;20129;-83
2021/12/09 10:44:32;;;;;;;11.85;10.75;;;;;;;5.09;73.08;99893.13;4970399;28;20049;-83
2021/12/09 10:47:11;;;;;;;12.20;11.10;;;;;;;4.86;72.95;99863.34;4987804;28;20393;-84
2021/12/09 10:49:49;;;;;;;12.20;10.90;;;;;;;4.65;72.56;99819.31;4971618;28;20076;-83
2021/12/09 10:52:42;;;;;;;11.73;10.63;;;;;;;5.12;72.50;99883.22;4971998;28;20046;-83
2021/12/09 10:55:17;;;;;;;13.50;12.20;;;;;;;5.10;72.41;99881.66;4972430;28;20109;-83
2021/12/09 10:57:44;;;;;;;13.43;12.13;;;;;;;4.80;72.59;99827.81;4988558;28;20141;-84
2021/12/09 11:00:35;;;;;;;12.00;10.60;;;;;;;5.13;72.77;99879.63;4970148;28;20047;-83
2021/12/09 11:03:07;;;;;;;12.30;11.17;;;;;;;4.13;72.19;99706.88;4963377;28;20058;-83
2021/12/09 11:05:38;;;;;;;12.10;10.95;;;;;;;5.20;71.82;99877.34;4985591;28;20093;-83
2021/12/09 11:08:37;;;;;;;13.57;12.20;;;;;;;5.27;71.98;99883.81;4971839;28;20500;-83
2021/12/09 11:11:12;;;;;;;12.25;10.82;;;;;;;5.09;70.88;99859.75;4971341;28;20058;-82
2021/12/09 11:13:44;;;;;;;12.45;11.25;;;;;;;5.30;71.41;99890.63;4971422;28;20050;-85
2021/12/09 11:16:15;;;;;;;13.30;11.93;;;;;;;5.38;72.31;99890.84;4971102;28;20141;-84
2021/12/09 11:18:46;;;;;;;12.60;11.30;;;;;;;5.38;72.81;99885.59;4971911;28;20054;-82
2021/12/09 11:21:28;;;;;;;12.52;10.85;;;;;;;5.17;72.07;99848.66;4981593;28;20605;-83
2021/12/09 11:24:13;;;;;;;11.18;10.18;;;;;;;5.40;71.33;99894.22;4988173;28;20050;-82
2021/12/09 11:27:00;;;;;;;10.83;9.73;;;;;;;5.41;71.87;99887.97;4986536;28;20476;-85
2021/12/09 11:29:37;;;;;;;11.53;10.40;;;;;;;5.49;71.99;99908.47;4987157;28;20046;-83
2021/12/09 11:32:31;;;;;;;11.90;10.67;;;;;;;5.28;72.08;99879.38;4971186;28;20054;-85
2021/12/09 11:35:12;;;;;;;11.98;10.77;;;;;;;5.37;72.63;99891.00;4986747;28;20054;-82
2021/12/09 11:37:58;;;;;;;10.20;9.07;;;;;;;4.52;71.58;99754.69;4987930;28;20065;-83
2021/12/09 11:40:40;;;;;;;11.70;10.50;;;;;;;5.42;71.92;99902.00;4987231;28;20100;-85
2021/12/09 11:43:10;;;;;;;12.68;10.50;;;;;;;5.54;72.20;99912.41;4971069;28;20093;-85